sensor_id;sensor_type;location;lat;lon;timestamp;pressure;altitude;pressure_sealevel;temperature;humidity
11523;BME280;40093;43.224;27.910;2023-01-13T00:00:12;101027.16;;;4.37;100.00
11523;BME280;40093;43.224;27.910;2023-01-13T00:02:39;101031.00;;;4.36;100.00
11523;BME280;40093;43.224;27.910;2023-01-13T00:05:06;101026.38;;;4.45;100.00
11523;BME280;40093;43.224;27.910;2023-01-13T00:07:34;101024.75;;;4.52;100.00
11523;BME280;40093;43.224;27.910;2023-01-13T00:10:02;101020.59;;;4.38;100.00
11523;BME280;40093;43.224;27.910;2023-01-13T00:12:29;101024.91;;;4.39;100.00
11523;BME280;40093;43.224;27.910;2023-01-13T00:14:56;101026.84;;;4.47;100.00
11523;BME280;40093;43.224;27.910;2023-01-13T00:17:23;101027.94;;;4.54;100.00
11523;BME280;40093;43.224;27.910;2023-01-13T00:19:50;101018.97;;;4.62;100.00
11523;BME280;40093;43.224;27.910;2023-01-13T00:22:17;101026.50;;;4.57;100.00
11523;BME280;40093;43.224;27.910;2023-01-13T00:24:44;101024.28;;;4.50;100.00
11523;BME280;40093;43.224;27.910;2023-01-13T00:27:12;101017.22;;;4.41;100.00
11523;BME280;40093;43.224;27.910;2023-01-13T00:29:39;101022.19;;;4.39;100.00
11523;BME280;40093;43.224;27.910;2023-01-13T00:32:06;101015.44;;;4.53;100.00
11523;BME280;40093;43.224;27.910;2023-01-13T00:34:33;101015.75;;;4.60;100.00
11523;BME280;40093;43.224;27.910;2023-01-13T00:37:00;101011.41;;;4.68;100.00
11523;BME280;40093;43.224;27.910;2023-01-13T00:39:27;101014.09;;;4.76;100.00
11523;BME280;40093;43.224;27.910;2023-01-13T00:41:54;101006.56;;;4.81;100.00
11523;BME280;40093;43.224;27.910;2023-01-13T00:44:39;100990.34;;;4.85;100.00
11523;BME280;40093;43.224;27.910;2023-01-13T00:47:06;100996.13;;;4.83;100.00
11523;BME280;40093;43.224;27.910;2023-01-13T00:49:33;100989.38;;;4.89;100.00
11523;BME280;40093;43.224;27.910;2023-01-13T00:52:00;100994.88;;;4.81;100.00
11523;BME280;40093;43.224;27.910;2023-01-13T00:54:27;100983.00;;;4.77;100.00
11523;BME280;40093;43.224;27.910;2023-01-13T00:56:54;100979.47;;;4.68;100.00
11523;BME280;40093;43.224;27.910;2023-01-13T00:59:21;100992.38;;;4.42;100.00
11523;BME280;40093;43.224;27.910;2023-01-13T01:01:49;100996.84;;;4.55;100.00
11523;BME280;40093;43.224;27.910;2023-01-13T01:04:16;100991.03;;;4.65;100.00
11523;BME280;40093;43.224;27.910;2023-01-13T01:06:43;100993.75;;;4.73;100.00
11523;BME280;40093;43.224;27.910;2023-01-13T01:09:12;100994.34;;;4.87;100.00
11523;BME280;40093;43.224;27.910;2023-01-13T01:11:39;100995.13;;;4.88;100.00
11523;BME280;40093;43.224;27.910;2023-01-13T01:14:08;100995.66;;;4.81;100.00
11523;BME280;40093;43.224;27.910;2023-01-13T01:16:37;100994.22;;;4.84;100.00
11523;BME280;40093;43.224;27.910;2023-01-13T01:19:06;101001.53;;;5.00;100.00
11523;BME280;40093;43.224;27.910;2023-01-13T01:21:33;100992.53;;;5.00;100.00
11523;BME280;40093;43.224;27.910;2023-01-13T01:24:02;101001.25;;;4.85;100.00
11523;BME280;40093;43.224;27.910;2023-01-13T01:26:30;101004.00;;;4.77;100.00
11523;BME280;40093;43.224;27.910;2023-01-13T01:28:57;100996.63;;;4.85;100.00
11523;BME280;40093;43.224;27.910;2023-01-13T01:31:28;100998.84;;;4.83;100.00
11523;BME280;40093;43.224;27.910;2023-01-13T01:33:56;100996.34;;;4.70;100.00
11523;BME280;40093;43.224;27.910;2023-01-13T01:36:26;100999.84;;;4.71;100.00
11523;BME280;40093;43.224;27.910;2023-01-13T01:38:55;100968.47;;;4.48;100.00
11523;BME280;40093;43.224;27.910;2023-01-13T01:41:25;101003.53;;;4.75;100.00
11523;BME280;40093;43.224;27.910;2023-01-13T01:43:54;101002.34;;;4.92;100.00
11523;BME280;40093;43.224;27.910;2023-01-13T01:46:32;100996.25;;;4.95;100.00
11523;BME280;40093;43.224;27.910;2023-01-13T01:49:07;100995.75;;;4.93;100.00
11523;BME280;40093;43.224;27.910;2023-01-13T01:51:41;100994.81;;;4.89;100.00
11523;BME280;40093;43.224;27.910;2023-01-13T01:54:12;100991.28;;;4.97;100.00
11523;BME280;40093;43.224;27.910;2023-01-13T01:56:42;100984.22;;;4.88;100.00
11523;BME280;40093;43.224;27.910;2023-01-13T01:59:10;100984.56;;;4.86;100.00
11523;BME280;40093;43.224;27.910;2023-01-13T02:01:37;100987.31;;;4.86;100.00
11523;BME280;40093;43.224;27.910;2023-01-13T02:04:11;100986.66;;;4.89;100.00
11523;BME280;40093;43.224;27.910;2023-01-13T02:06:41;100991.59;;;4.96;100.00
11523;BME280;40093;43.224;27.910;2023-01-13T02:09:09;100985.63;;;5.02;100.00
11523;BME280;40093;43.224;27.910;2023-01-13T02:11:37;100994.78;;;5.06;100.00
11523;BME280;40093;43.224;27.910;2023-01-13T02:14:24;100993.53;;;4.95;100.00
11523;BME280;40093;43.224;27.910;2023-01-13T02:17:02;100993.72;;;4.82;100.00
11523;BME280;40093;43.224;27.910;2023-01-13T02:20:06;100991.44;;;4.92;100.00
11523;BME280;40093;43.224;27.910;2023-01-13T02:22:57;101004.28;;;4.83;100.00
11523;BME280;40093;43.224;27.910;2023-01-13T02:25:43;100988.94;;;4.71;100.00
11523;BME280;40093;43.224;27.910;2023-01-13T02:28:30;100996.97;;;4.76;100.00
11523;BME280;40093;43.224;27.910;2023-01-13T02:31:06;100996.34;;;4.70;100.00
11523;BME280;40093;43.224;27.910;2023-01-13T02:34:04;101001.91;;;4.82;100.00
11523;BME280;40093;43.224;27.910;2023-01-13T02:36:38;100999.47;;;4.97;100.00
11523;BME280;40093;43.224;27.910;2023-01-13T02:39:11;100998.44;;;5.10;100.00
11523;BME280;40093;43.224;27.910;2023-01-13T02:41:43;100994.59;;;5.11;100.00
11523;BME280;40093;43.224;27.910;2023-01-13T02:44:35;101001.72;;;4.95;100.00
11523;BME280;40093;43.224;27.910;2023-01-13T02:47:09;100996.72;;;4.97;100.00
11523;BME280;40093;43.224;27.910;2023-01-13T02:49:43;100996.63;;;4.85;100.00
11523;BME280;40093;43.224;27.910;2023-01-13T02:52:14;100993.03;;;4.93;100.00
11523;BME280;40093;43.224;27.910;2023-01-13T02:54:48;100998.66;;;4.97;100.00
11523;BME280;40093;43.224;27.910;2023-01-13T02:57:18;101004.28;;;4.92;100.00
11523;BME280;40093;43.224;27.910;2023-01-13T02:59:47;101000.47;;;4.84;100.00
11523;BME280;40093;43.224;27.910;2023-01-13T03:02:18;100994.59;;;4.66;100.00
11523;BME280;40093;43.224;27.910;2023-01-13T03:04:52;100994.72;;;4.78;100.00
11523;BME280;40093;43.224;27.910;2023-01-13T03:07:41;100987.78;;;4.88;100.00
11523;BME280;40093;43.224;27.910;2023-01-13T03:10:21;100987.06;;;5.00;100.00
11523;BME280;40093;43.224;27.910;2023-01-13T03:12:58;100988.19;;;4.99;100.00
11523;BME280;40093;43.224;27.910;2023-01-13T03:15:36;100994.63;;;4.94;100.00
11523;BME280;40093;43.224;27.910;2023-01-13T03:18:13;100994.22;;;4.84;100.00
11523;BME280;40093;43.224;27.910;2023-01-13T03:20:50;100994.53;;;4.82;100.00
11523;BME280;40093;43.224;27.910;2023-01-13T03:23:26;100986.06;;;4.76;100.00
11523;BME280;40093;43.224;27.910;2023-01-13T03:26:03;100994.63;;;4.94;100.00
11523;BME280;40093;43.224;27.910;2023-01-13T03:28:34;100991.19;;;4.69;100.00
11523;BME280;40093;43.224;27.910;2023-01-13T03:31:05;101000.78;;;4.83;100.00
11523;BME280;40093;43.224;27.910;2023-01-13T03:33:39;100995.53;;;4.70;100.00
11523;BME280;40093;43.224;27.910;2023-01-13T03:36:09;100992.13;;;4.72;100.00
11523;BME280;40093;43.224;27.910;2023-01-13T03:38:41;100995.53;;;4.70;100.00
11523;BME280;40093;43.224;27.910;2023-01-13T03:41:12;100986.06;;;4.76;100.00
11523;BME280;40093;43.224;27.910;2023-01-13T03:43:46;100994.03;;;4.80;100.00
11523;BME280;40093;43.224;27.910;2023-01-13T03:46:35;100996.00;;;4.72;100.00
11523;BME280;40093;43.224;27.910;2023-01-13T03:49:08;100999.84;;;4.71;100.00
11523;BME280;40093;43.224;27.910;2023-01-13T03:51:38;101002.56;;;4.71;100.00
11523;BME280;40093;43.224;27.910;2023-01-13T03:54:08;101000.19;;;4.61;100.00
11523;BME280;40093;43.224;27.910;2023-01-13T03:56:38;101000.41;;;4.47;100.00
11523;BME280;40093;43.224;27.910;2023-01-13T03:59:09;100998.78;;;4.46;100.00
11523;BME280;40093;43.224;27.910;2023-01-13T04:01:44;100998.59;;;4.60;100.00
11523;BME280;40093;43.224;27.910;2023-01-13T04:04:17;101002.44;;;4.59;100.00
11523;BME280;40093;43.224;27.910;2023-01-13T04:06:51;101000.66;;;4.63;100.00
11523;BME280;40093;43.224;27.910;2023-01-13T04:09:25;101000.66;;;4.71;100.00
11523;BME280;40093;43.224;27.910;2023-01-13T04:12:00;101000.00;;;4.74;100.00
11523;BME280;40093;43.224;27.910;2023-01-13T04:14:30;101001.91;;;4.82;100.00
11523;BME280;40093;43.224;27.910;2023-01-13T04:16:57;101006.91;;;4.72;100.00
11523;BME280;40093;43.224;27.910;2023-01-13T04:19:26;101011.09;;;4.69;100.00
11523;BME280;40093;43.224;27.910;2023-01-13T04:21:53;101008.84;;;4.63;100.00
11523;BME280;40093;43.224;27.910;2023-01-13T04:24:19;101002.91;;;4.69;100.00
11523;BME280;40093;43.224;27.910;2023-01-13T04:26:46;101005.84;;;4.47;100.00
11523;BME280;40093;43.224;27.910;2023-01-13T04:29:13;101010.81;;;4.37;100.00
11523;BME280;40093;43.224;27.910;2023-01-13T04:31:40;101012.25;;;4.51;100.00
11523;BME280;40093;43.224;27.910;2023-01-13T04:34:08;101009.97;;;4.62;100.00
11523;BME280;40093;43.224;27.910;2023-01-13T04:36:37;101016.22;;;4.71;100.00
11523;BME280;40093;43.224;27.910;2023-01-13T04:39:03;101019.41;;;4.72;100.00
11523;BME280;40093;43.224;27.910;2023-01-13T04:41:30;101019.91;;;4.66;100.00
11523;BME280;40093;43.224;27.910;2023-01-13T04:44:18;101022.31;;;4.68;100.00
11523;BME280;40093;43.224;27.910;2023-01-13T04:46:45;101027.94;;;4.54;100.00
11523;BME280;40093;43.224;27.910;2023-01-13T04:49:12;101021.50;;;4.67;100.00
11523;BME280;40093;43.224;27.910;2023-01-13T04:51:40;101028.72;;;4.72;100.00
11523;BME280;40093;43.224;27.910;2023-01-13T04:54:08;101031.16;;;4.65;100.00
11523;BME280;40093;43.224;27.910;2023-01-13T04:56:35;101028.59;;;4.51;100.00
11523;BME280;40093;43.224;27.910;2023-01-13T04:59:02;101037.41;;;4.57;100.00
11523;BME280;40093;43.224;27.910;2023-01-13T05:01:29;101033.22;;;4.68;100.00
11523;BME280;40093;43.224;27.910;2023-01-13T05:03:56;101043.31;;;4.76;100.00
11523;BME280;40093;43.224;27.910;2023-01-13T05:06:23;101039.47;;;4.77;100.00
11523;BME280;40093;43.224;27.910;2023-01-13T05:08:51;101041.22;;;4.72;100.00
11523;BME280;40093;43.224;27.910;2023-01-13T05:11:19;101042.47;;;4.83;100.00
11523;BME280;40093;43.224;27.910;2023-01-13T05:14:03;101040.41;;;4.80;100.00
11523;BME280;40093;43.224;27.910;2023-01-13T05:16:49;101044.94;;;4.51;100.00
11523;BME280;40093;43.224;27.910;2023-01-13T05:19:26;101040.28;;;4.69;100.00
11523;BME280;40093;43.224;27.910;2023-01-13T05:21:53;101046.38;;;4.66;100.00
11523;BME280;40093;43.224;27.910;2023-01-13T05:24:39;101046.38;;;4.66;100.00
11523;BME280;40093;43.224;27.910;2023-01-13T05:27:24;101041.41;;;4.68;100.00
11523;BME280;40093;43.224;27.910;2023-01-13T05:29:51;101040.75;;;4.71;100.00
11523;BME280;40093;43.224;27.910;2023-01-13T05:32:19;101039.78;;;4.75;100.00
11523;BME280;40093;43.224;27.910;2023-01-13T05:34:46;101039.63;;;4.72;100.00
11523;BME280;40093;43.224;27.910;2023-01-13T05:37:13;101037.66;;;4.80;100.00
11523;BME280;40093;43.224;27.910;2023-01-13T05:39:42;101041.53;;;4.79;100.00
11523;BME280;40093;43.224;27.910;2023-01-13T05:42:26;101041.03;;;4.86;100.00
11523;BME280;40093;43.224;27.910;2023-01-13T05:45:11;101045.53;;;4.82;100.00
11523;BME280;40093;43.224;27.910;2023-01-13T05:47:38;101039.16;;;4.61;100.00
11523;BME280;40093;43.224;27.910;2023-01-13T05:50:05;101044.28;;;4.71;100.00
11523;BME280;40093;43.224;27.910;2023-01-13T05:52:32;101050.84;;;4.78;100.00
11523;BME280;40093;43.224;27.910;2023-01-13T05:55:00;101054.53;;;4.74;100.00
11523;BME280;40093;43.224;27.910;2023-01-13T05:57:29;101044.25;;;4.79;100.00
11523;BME280;40093;43.224;27.910;2023-01-13T05:59:57;101046.97;;;4.79;100.00
11523;BME280;40093;43.224;27.910;2023-01-13T06:02:24;101058.19;;;4.86;100.00
11523;BME280;40093;43.224;27.910;2023-01-13T06:04:52;101060.44;;;4.93;100.00
11523;BME280;40093;43.224;27.910;2023-01-13T06:07:20;101068.63;;;4.93;100.00
11523;BME280;40093;43.224;27.910;2023-01-13T06:09:47;101066.19;;;4.91;100.00
11523;BME280;40093;43.224;27.910;2023-01-13T06:12:15;101067.50;;;4.85;100.00
11523;BME280;40093;43.224;27.910;2023-01-13T06:14:42;101070.38;;;4.89;100.00
11523;BME280;40093;43.224;27.910;2023-01-13T06:17:12;101077.44;;;4.81;100.00
11523;BME280;40093;43.224;27.910;2023-01-13T06:19:39;101073.16;;;4.72;100.00
11523;BME280;40093;43.224;27.910;2023-01-13T06:22:10;101082.44;;;4.79;100.00
11523;BME280;40093;43.224;27.910;2023-01-13T06:24:38;101084.81;;;4.89;100.00
11523;BME280;40093;43.224;27.910;2023-01-13T06:27:06;101088.66;;;4.88;100.00
11523;BME280;40093;43.224;27.910;2023-01-13T06:29:35;101088.66;;;4.88;100.00
11523;BME280;40093;43.224;27.910;2023-01-13T06:32:04;101082.91;;;4.81;100.00
11523;BME280;40093;43.224;27.910;2023-01-13T06:34:34;101091.09;;;4.90;100.00
11523;BME280;40093;43.224;27.910;2023-01-13T06:37:01;101080.34;;;4.77;100.00
11523;BME280;40093;43.224;27.910;2023-01-13T06:39:30;101092.38;;;4.84;100.00
11523;BME280;40093;43.224;27.910;2023-01-13T06:41:58;101091.88;;;4.73;100.00
11523;BME280;40093;43.224;27.910;2023-01-13T06:44:44;101094.78;;;4.69;100.00
11523;BME280;40093;43.224;27.910;2023-01-13T06:47:11;101086.31;;;4.70;100.00
11523;BME280;40093;43.224;27.910;2023-01-13T06:49:38;101088.69;;;4.72;100.00
11523;BME280;40093;43.224;27.910;2023-01-13T06:52:05;101091.88;;;4.73;100.00
11523;BME280;40093;43.224;27.910;2023-01-13T06:54:33;101094.47;;;4.78;100.00
11523;BME280;40093;43.224;27.910;2023-01-13T06:57:01;101099.44;;;4.68;100.00
11523;BME280;40093;43.224;27.910;2023-01-13T06:59:28;101097.69;;;4.64;100.00
11523;BME280;40093;43.224;27.910;2023-01-13T07:01:56;101104.59;;;4.53;100.00
11523;BME280;40093;43.224;27.910;2023-01-13T07:04:23;101094.34;;;4.58;100.00
11523;BME280;40093;43.224;27.910;2023-01-13T07:06:50;101103.75;;;4.61;100.00
11523;BME280;40093;43.224;27.910;2023-01-13T07:09:16;101094.00;;;4.77;100.00
11523;BME280;40093;43.224;27.910;2023-01-13T07:11:43;101099.56;;;4.88;100.00
11523;BME280;40093;43.224;27.910;2023-01-13T07:14:11;101105.63;;;5.11;100.00
11523;BME280;40093;43.224;27.910;2023-01-13T07:16:56;101102.56;;;5.12;100.00
11523;BME280;40093;43.224;27.910;2023-01-13T07:19:23;101103.25;;;5.01;100.00
11523;BME280;40093;43.224;27.910;2023-01-13T07:21:50;101110.44;;;5.05;100.00
11523;BME280;40093;43.224;27.910;2023-01-13T07:24:17;101109.19;;;4.94;100.00
11523;BME280;40093;43.224;27.910;2023-01-13T07:26:44;101102.78;;;4.90;100.00
11523;BME280;40093;43.224;27.910;2023-01-13T07:29:11;101104.34;;;5.00;100.00
11523;BME280;40093;43.224;27.910;2023-01-13T07:31:38;101111.94;;;4.86;100.00
11523;BME280;40093;43.224;27.910;2023-01-13T07:34:07;101116.25;;;4.95;100.00
11523;BME280;40093;43.224;27.910;2023-01-13T07:36:34;101105.47;;;5.07;100.00
11523;BME280;40093;43.224;27.910;2023-01-13T07:39:01;101111.56;;;5.04;100.00
11523;BME280;40093;43.224;27.910;2023-01-13T07:41:28;101115.75;;;5.02;100.00
11523;BME280;40093;43.224;27.910;2023-01-13T07:44:13;101121.84;;;4.99;100.00
11523;BME280;40093;43.224;27.910;2023-01-13T07:46:40;101122.31;;;5.09;100.00
11523;BME280;40093;43.224;27.910;2023-01-13T07:49:08;101121.50;;;5.09;100.00
11523;BME280;40093;43.224;27.910;2023-01-13T07:51:36;101108.84;;;5.04;100.00
11523;BME280;40093;43.224;27.910;2023-01-13T07:54:03;101121.50;;;5.09;100.00
11523;BME280;40093;43.224;27.910;2023-01-13T07:56:30;101119.72;;;5.21;100.00
11523;BME280;40093;43.224;27.910;2023-01-13T07:58:58;101122.56;;;5.33;100.00
11523;BME280;40093;43.224;27.910;2023-01-13T08:01:25;101136.06;;;5.38;100.00
11523;BME280;40093;43.224;27.910;2023-01-13T08:03:53;101133.22;;;5.09;100.00
11523;BME280;40093;43.224;27.910;2023-01-13T08:06:22;101137.84;;;5.26;100.00
11523;BME280;40093;43.224;27.910;2023-01-13T08:08:49;101135.91;;;5.26;100.00
11523;BME280;40093;43.224;27.910;2023-01-13T08:11:16;101142.66;;;5.29;100.00
11523;BME280;40093;43.224;27.910;2023-01-13T08:13:43;101139.41;;;5.35;100.00
11523;BME280;40093;43.224;27.910;2023-01-13T08:16:11;101132.88;;;5.28;100.00
11523;BME280;40093;43.224;27.910;2023-01-13T08:18:39;101145.34;;;5.37;100.00
11523;BME280;40093;43.224;27.910;2023-01-13T08:21:08;101136.06;;;5.38;100.00
11523;BME280;40093;43.224;27.910;2023-01-13T08:23:37;101142.94;;;5.44;100.00
11523;BME280;40093;43.224;27.910;2023-01-13T08:26:05;101145.50;;;5.49;100.00
11523;BME280;40093;43.224;27.910;2023-01-13T08:28:35;101143.75;;;5.36;100.00
11523;BME280;40093;43.224;27.910;2023-01-13T08:31:03;101148.56;;;5.39;100.00
11523;BME280;40093;43.224;27.910;2023-01-13T08:33:31;101147.78;;;5.30;100.00
11523;BME280;40093;43.224;27.910;2023-01-13T08:36:02;101142.50;;;5.25;100.00
11523;BME280;40093;43.224;27.910;2023-01-13T08:38:29;101146.00;;;5.34;100.00
11523;BME280;40093;43.224;27.910;2023-01-13T08:40:57;101136.19;;;5.50;100.00
11523;BME280;40093;43.224;27.910;2023-01-13T08:43:24;101137.00;;;5.42;100.00
11523;BME280;40093;43.224;27.910;2023-01-13T08:45:55;101146.81;;;5.35;100.00
11523;BME280;40093;43.224;27.910;2023-01-13T08:48:22;101144.09;;;5.26;100.00
11523;BME280;40093;43.224;27.910;2023-01-13T08:50:49;101144.75;;;5.23;100.00
11523;BME280;40093;43.224;27.910;2023-01-13T08:53:17;101140.38;;;5.31;100.00
11523;BME280;40093;43.224;27.910;2023-01-13T08:55:44;101142.63;;;5.37;100.00
11523;BME280;40093;43.224;27.910;2023-01-13T08:58:12;101134.44;;;5.37;100.00
11523;BME280;40093;43.224;27.910;2023-01-13T09:00:39;101135.44;;;5.24;100.00
11523;BME280;40093;43.224;27.910;2023-01-13T09:03:06;101140.59;;;5.17;100.00
11523;BME280;40093;43.224;27.910;2023-01-13T09:05:34;101138.63;;;5.26;100.00
11523;BME280;40093;43.224;27.910;2023-01-13T09:08:01;101133.84;;;5.23;100.00
11523;BME280;40093;43.224;27.910;2023-01-13T09:10:28;101139.94;;;5.20;100.00
11523;BME280;40093;43.224;27.910;2023-01-13T09:12:55;101137.69;;;5.22;100.00
11523;BME280;40093;43.224;27.910;2023-01-13T09:15:38;101126.13;;;5.25;100.00
11523;BME280;40093;43.224;27.910;2023-01-13T09:18:05;101130.78;;;5.25;100.00
11523;BME280;40093;43.224;27.910;2023-01-13T09:20:32;101131.56;;;5.25;100.00
11523;BME280;40093;43.224;27.910;2023-01-13T09:22:59;101132.53;;;5.29;100.00
11523;BME280;40093;43.224;27.910;2023-01-13T09:25:26;101119.06;;;5.33;100.00
11523;BME280;40093;43.224;27.910;2023-01-13T09:27:53;101119.97;;;5.45;100.00
11523;BME280;40093;43.224;27.910;2023-01-13T09:30:20;101124.63;;;5.36;100.00
11523;BME280;40093;43.224;27.910;2023-01-13T09:32:48;101113.88;;;5.48;100.00
11523;BME280;40093;43.224;27.910;2023-01-13T09:35:35;101111.09;;;5.57;100.00
11523;BME280;40093;43.224;27.910;2023-01-13T09:38:01;101114.97;;;5.56;100.00
11523;BME280;40093;43.224;27.910;2023-01-13T09:40:28;101107.09;;;5.54;100.00
11523;BME280;40093;43.224;27.910;2023-01-13T09:42:59;101105.47;;;5.53;100.00
11523;BME280;40093;43.224;27.910;2023-01-13T09:45:47;101108.38;;;5.57;100.00
11523;BME280;40093;43.224;27.910;2023-01-13T09:48:21;101100.22;;;5.40;100.00
11523;BME280;40093;43.224;27.910;2023-01-13T09:50:58;101105.84;;;5.43;100.00
11523;BME280;40093;43.224;27.910;2023-01-13T09:53:28;101103.94;;;5.35;100.00
11523;BME280;40093;43.224;27.910;2023-01-13T09:55:55;101099.88;;;5.50;100.00
11523;BME280;40093;43.224;27.910;2023-01-13T09:58:23;101096.47;;;5.61;100.00
11523;BME280;40093;43.224;27.910;2023-01-13T10:00:59;101103.00;;;5.69;100.00
11523;BME280;40093;43.224;27.910;2023-01-13T10:03:32;101098.56;;;5.56;100.00
11523;BME280;40093;43.224;27.910;2023-01-13T10:06:04;101103.53;;;5.62;100.00
11523;BME280;40093;43.224;27.910;2023-01-13T10:08:37;101095.84;;;5.56;100.00
11523;BME280;40093;43.224;27.910;2023-01-13T10:11:08;101091.38;;;5.51;100.00
11523;BME280;40093;43.224;27.910;2023-01-13T10:13:57;101087.13;;;5.62;100.00
11523;BME280;40093;43.224;27.910;2023-01-13T10:16:35;101073.13;;;5.72;100.00
11523;BME280;40093;43.224;27.910;2023-01-13T10:19:15;101079.19;;;5.78;100.00
11523;BME280;40093;43.224;27.910;2023-01-13T10:22:12;101074.50;;;5.78;100.00
11523;BME280;40093;43.224;27.910;2023-01-13T10:25:12;101077.25;;;5.78;100.00
11523;BME280;40093;43.224;27.910;2023-01-13T10:27:45;101066.91;;;5.63;100.00
11523;BME280;40093;43.224;27.910;2023-01-13T10:30:23;101074.47;;;5.58;100.00
11523;BME280;40093;43.224;27.910;2023-01-13T10:32:56;101069.16;;;5.61;100.00
11523;BME280;40093;43.224;27.910;2023-01-13T10:35:49;101065.09;;;5.67;100.00
11523;BME280;40093;43.224;27.910;2023-01-13T10:38:18;101059.47;;;5.72;100.00
11523;BME280;40093;43.224;27.910;2023-01-13T10:40:47;101058.31;;;5.73;100.00
11523;BME280;40093;43.224;27.910;2023-01-13T10:43:14;101057.88;;;5.71;100.00
11523;BME280;40093;43.224;27.910;2023-01-13T10:46:00;101049.69;;;5.63;100.00
11523;BME280;40093;43.224;27.910;2023-01-13T10:48:41;101058.88;;;5.58;100.00
11523;BME280;40093;43.224;27.910;2023-01-13T10:51:20;101065.38;;;5.74;100.00
11523;BME280;40093;43.224;27.910;2023-01-13T10:53:53;101057.19;;;5.74;100.00
11523;BME280;40093;43.224;27.910;2023-01-13T10:56:24;101065.13;;;5.96;100.00
11523;BME280;40093;43.224;27.910;2023-01-13T10:58:51;101057.22;;;6.03;100.00
11523;BME280;40093;43.224;27.910;2023-01-13T11:01:34;101061.78;;;6.11;100.00
11523;BME280;40093;43.224;27.910;2023-01-13T11:04:23;101055.88;;;6.09;100.00
11523;BME280;40093;43.224;27.910;2023-01-13T11:06:53;101056.28;;;6.20;100.00
11523;BME280;40093;43.224;27.910;2023-01-13T11:09:22;101054.78;;;6.22;100.00
11523;BME280;40093;43.224;27.910;2023-01-13T11:11:51;101056.94;;;6.17;100.00
11523;BME280;40093;43.224;27.910;2023-01-13T11:14:24;101046.81;;;6.17;100.00
11523;BME280;40093;43.224;27.910;2023-01-13T11:17:25;101047.66;;;6.09;100.00
11523;BME280;40093;43.224;27.910;2023-01-13T11:19:59;101051.13;;;6.18;100.00
11523;BME280;40093;43.224;27.910;2023-01-13T11:22:32;101056.16;;;6.16;100.00
11523;BME280;40093;43.224;27.910;2023-01-13T11:25:00;101056.72;;;6.01;100.00
11523;BME280;40093;43.224;27.910;2023-01-13T11:27:39;101055.78;;;5.97;100.00
11523;BME280;40093;43.224;27.910;2023-01-13T11:30:15;101058.34;;;6.02;100.00
11523;BME280;40093;43.224;27.910;2023-01-13T11:32:57;101047.00;;;5.92;100.00
11523;BME280;40093;43.224;27.910;2023-01-13T11:35:27;101053.53;;;5.99;100.00
11523;BME280;40093;43.224;27.910;2023-01-13T11:38:00;101058.34;;;6.02;100.00
11523;BME280;40093;43.224;27.910;2023-01-13T11:40:33;101058.88;;;6.16;100.00
11523;BME280;40093;43.224;27.910;2023-01-13T11:43:07;101051.00;;;6.15;100.00
11523;BME280;40093;43.224;27.910;2023-01-13T11:45:40;101062.34;;;6.25;100.00
11523;BME280;40093;43.224;27.910;2023-01-13T11:48:13;101063.28;;;6.29;100.00
11523;BME280;40093;43.224;27.910;2023-01-13T11:50:45;101068.34;;;6.39;100.00
11523;BME280;40093;43.224;27.910;2023-01-13T11:53:28;101068.34;;;6.39;100.00
11523;BME280;40093;43.224;27.910;2023-01-13T11:56:08;101076.59;;;6.51;100.00
11523;BME280;40093;43.224;27.910;2023-01-13T11:58:50;101072.19;;;6.59;100.00
11523;BME280;40093;43.224;27.910;2023-01-13T12:01:29;101074.81;;;6.55;100.00
11523;BME280;40093;43.224;27.910;2023-01-13T12:04:15;101068.56;;;6.34;100.00
11523;BME280;40093;43.224;27.910;2023-01-13T12:06:51;101063.72;;;6.31;100.00
11523;BME280;40093;43.224;27.910;2023-01-13T12:09:29;101062.13;;;6.30;100.00
11523;BME280;40093;43.224;27.910;2023-01-13T12:12:07;101065.16;;;6.37;100.00
11523;BME280;40093;43.224;27.910;2023-01-13T12:14:58;101073.00;;;6.18;100.00
11523;BME280;40093;43.224;27.910;2023-01-13T12:17:32;101065.81;;;6.14;100.00
11523;BME280;40093;43.224;27.910;2023-01-13T12:20:11;101060.53;;;6.29;100.00
11523;BME280;40093;43.224;27.910;2023-01-13T12:22:41;101064.88;;;6.30;100.00
11523;BME280;40093;43.224;27.910;2023-01-13T12:25:19;101065.16;;;6.37;100.00
11523;BME280;40093;43.224;27.910;2023-01-13T12:27:51;101065.16;;;6.37;100.00
11523;BME280;40093;43.224;27.910;2023-01-13T12:30:26;101061.47;;;6.33;100.00
11523;BME280;40093;43.224;27.910;2023-01-13T12:32:59;101068.47;;;6.22;100.00
11523;BME280;40093;43.224;27.910;2023-01-13T12:35:37;101058.47;;;6.26;100.00
11523;BME280;40093;43.224;27.910;2023-01-13T12:38:10;101059.69;;;6.37;100.00
11523;BME280;40093;43.224;27.910;2023-01-13T12:40:53;101059.25;;;6.27;100.00
11523;BME280;40093;43.224;27.910;2023-01-13T12:43:24;101067.19;;;6.40;100.00
11523;BME280;40093;43.224;27.910;2023-01-13T12:46:32;101075.47;;;6.52;100.00
11523;BME280;40093;43.224;27.910;2023-01-13T12:49:06;101069.53;;;6.50;100.00
11523;BME280;40093;43.224;27.910;2023-01-13T12:52:00;101072.22;;;6.38;100.00
11523;BME280;40093;43.224;27.910;2023-01-13T12:57:56;101070.28;;;6.39;100.00
11523;BME280;40093;43.224;27.910;2023-01-13T13:00:30;101062.59;;;6.32;100.00
11523;BME280;40093;43.224;27.910;2023-01-13T13:03:25;101067.56;;;6.39;100.00
11523;BME280;40093;43.224;27.910;2023-01-13T13:06:03;101046.88;;;6.29;100.00
11523;BME280;40093;43.224;27.910;2023-01-13T13:08:46;101069.94;;;6.61;100.00